Time;durP1;ratioP1;P1;durP2;ratioP2;P2;SDS_P1;SDS_P2;PMS_P1;PMS_P2;Temp;Humidity;BMP_temperature;BMP_pressure;BME280_temperature;BME280_humidity;BME280_pressure;Samples;Min_cycle;Max_cycle;Signal;HPM_P1;HPM_P2
2023/09/05 00:01:32;;;;;;;8.70;7.40;;;;;;;;;;5015862;28;20463;-74
2023/09/05 00:03:58;;;;;;;9.80;6.95;;;;;;;;;;5016094;28;20178;-74
2023/09/05 00:06:24;;;;;;;9.55;8.00;;;;;;;;;;5017560;28;20048;-75
2023/09/05 00:08:50;;;;;;;12.73;8.52;;;;;;;;;;5019957;28;20087;-74
2023/09/05 00:11:16;;;;;;;9.48;8.30;;;;;;;;;;5034126;28;20056;-74
2023/09/05 00:13:43;;;;;;;10.38;8.48;;;;;;;;;;5007319;28;20048;-74
2023/09/05 00:16:09;;;;;;;9.38;8.55;;;;;;;;;;5018494;28;20045;-74
2023/09/05 00:18:35;;;;;;;11.38;8.38;;;;;;;;;;5017457;28;21003;-74
2023/09/05 00:21:01;;;;;;;8.95;8.05;;;;;;;;;;5034614;28;20133;-74
2023/09/05 00:23:27;;;;;;;10.70;8.05;;;;;;;;;;5018144;28;20049;-74
2023/09/05 00:25:53;;;;;;;9.70;8.70;;;;;;;;;;5002690;28;20712;-74
2023/09/05 00:28:19;;;;;;;9.70;8.43;;;;;;;;;;5017068;28;20071;-75
2023/09/05 00:30:46;;;;;;;9.73;8.75;;;;;;;;;;5001489;28;20076;-74
2023/09/05 00:33:12;;;;;;;9.68;8.77;;;;;;;;;;5002215;28;20079;-74
2023/09/05 00:35:38;;;;;;;10.85;8.18;;;;;;;;;;5035383;28;20436;-74
2023/09/05 00:38:04;;;;;;;9.70;8.73;;;;;;;;;;5018384;28;20049;-74
2023/09/05 00:40:30;;;;;;;11.98;9.13;;;;;;;;;;5002747;28;20060;-74
2023/09/05 00:42:58;;;;;;;9.75;8.80;;;;;;;;;;5017863;28;20045;-75
2023/09/05 00:45:24;;;;;;;11.75;8.70;;;;;;;;;;5017630;28;20044;-74
2023/09/05 00:47:50;;;;;;;8.93;8.02;;;;;;;;;;5035258;28;20045;-75
2023/09/05 00:50:18;;;;;;;9.55;8.55;;;;;;;;;;5015104;28;20045;-74
2023/09/05 00:52:45;;;;;;;10.80;9.18;;;;;;;;;;5017792;28;20083;-74
2023/09/05 00:55:11;;;;;;;10.05;8.98;;;;;;;;;;5017396;28;20488;-74
2023/09/05 00:57:38;;;;;;;9.68;8.68;;;;;;;;;;5036767;28;20052;-74
2023/09/05 01:00:06;;;;;;;13.35;9.70;;;;;;;;;;5016894;28;20147;-74
2023/09/05 01:02:32;;;;;;;10.85;8.98;;;;;;;;;;5035538;28;20128;-74
2023/09/05 01:04:58;;;;;;;13.80;9.20;;;;;;;;;;5016629;28;20040;-75
2023/09/05 01:07:33;;;;;;;13.10;9.95;;;;;;;;;;4998020;28;20045;-75
2023/09/05 01:10:05;;;;;;;10.55;8.88;;;;;;;;;;5015758;28;20853;-74
2023/09/05 01:12:32;;;;;;;10.50;9.40;;;;;;;;;;5035081;28;20044;-74
2023/09/05 01:14:58;;;;;;;10.80;9.68;;;;;;;;;;5019074;28;20051;-74
2023/09/05 01:17:24;;;;;;;10.82;9.73;;;;;;;;;;5003128;28;20139;-74
2023/09/05 01:19:53;;;;;;;10.18;9.13;;;;;;;;;;5034496;28;20048;-74
2023/09/05 01:22:24;;;;;;;10.52;9.43;;;;;;;;;;5015718;28;20398;-74
2023/09/05 01:24:51;;;;;;;9.65;8.65;;;;;;;;;;4995958;28;20044;-74
2023/09/05 01:27:22;;;;;;;9.48;8.38;;;;;;;;;;5011555;28;20075;-75
2023/09/05 01:29:49;;;;;;;9.40;7.72;;;;;;;;;;5014583;28;20889;-74
2023/09/05 01:32:16;;;;;;;8.77;7.88;;;;;;;;;;5014731;28;20052;-75
2023/09/05 01:34:42;;;;;;;9.65;7.88;;;;;;;;;;5016012;28;20048;-74
2023/09/05 01:37:14;;;;;;;12.90;8.60;;;;;;;;;;4999276;28;20875;-74
2023/09/05 01:39:41;;;;;;;13.57;7.95;;;;;;;;;;5015431;28;20080;-74
2023/09/05 01:42:07;;;;;;;10.32;8.02;;;;;;;;;;5034427;28;20516;-74
2023/09/05 01:44:34;;;;;;;9.32;8.25;;;;;;;;;;4998442;28;20036;-74
2023/09/05 01:47:01;;;;;;;10.73;8.43;;;;;;;;;;5007686;28;20044;-74
2023/09/05 01:49:27;;;;;;;8.80;7.93;;;;;;;;;;5015458;28;20055;-74
2023/09/05 01:51:53;;;;;;;10.38;8.68;;;;;;;;;;5014199;28;20119;-75
2023/09/05 01:54:19;;;;;;;14.57;7.97;;;;;;;;;;5035118;28;20041;-74
2023/09/05 01:56:45;;;;;;;11.38;8.07;;;;;;;;;;5019003;28;20052;-74
2023/09/05 01:59:12;;;;;;;10.63;8.32;;;;;;;;;;5036896;28;20037;-75
2023/09/05 02:01:38;;;;;;;11.35;8.90;;;;;;;;;;5017822;28;20084;-75
2023/09/05 02:04:04;;;;;;;13.85;8.65;;;;;;;;;;5017838;28;20135;-75
2023/09/05 02:06:30;;;;;;;11.00;9.48;;;;;;;;;;5001561;28;20049;-75
2023/09/05 02:08:56;;;;;;;13.40;9.75;;;;;;;;;;5018310;28;20040;-75
2023/09/05 02:11:22;;;;;;;12.18;9.77;;;;;;;;;;5025916;28;20041;-74
2023/09/05 02:13:48;;;;;;;19.35;11.40;;;;;;;;;;5036245;28;20052;-75
2023/09/05 02:16:18;;;;;;;14.52;11.02;;;;;;;;;;5017943;28;20124;-75
2023/09/05 02:18:49;;;;;;;14.23;10.77;;;;;;;;;;5018406;28;20158;-75
2023/09/05 02:21:15;;;;;;;14.93;11.68;;;;;;;;;;5017612;28;20084;-74
2023/09/05 02:23:42;;;;;;;12.25;10.95;;;;;;;;;;5017637;28;20115;-75
2023/09/05 02:26:08;;;;;;;10.80;9.10;;;;;;;;;;5015176;28;20049;-75
2023/09/05 02:28:34;;;;;;;12.25;10.95;;;;;;;;;;5014132;28;20143;-74
2023/09/05 02:31:05;;;;;;;13.52;11.25;;;;;;;;;;5004868;28;20045;-74
2023/09/05 02:33:33;;;;;;;12.40;11.10;;;;;;;;;;5014545;28;20053;-74
2023/09/05 02:36:30;;;;;;;13.63;11.25;;;;;;;;;;4998357;28;20048;-74
2023/09/05 02:38:58;;;;;;;13.68;11.48;;;;;;;;;;5015860;28;20064;-74
2023/09/05 02:41:24;;;;;;;13.10;11.75;;;;;;;;;;5013142;28;20057;-74
2023/09/05 02:43:50;;;;;;;14.10;12.07;;;;;;;;;;5014281;28;20127;-75
2023/09/05 02:46:16;;;;;;;15.27;12.13;;;;;;;;;;5014839;28;20152;-74
2023/09/05 02:48:43;;;;;;;17.33;10.80;;;;;;;;;;5012417;28;20645;-74
2023/09/05 02:51:10;;;;;;;15.85;9.65;;;;;;;;;;5012052;28;20037;-74
2023/09/05 02:53:36;;;;;;;10.52;9.18;;;;;;;;;;5012650;28;20122;-73
2023/09/05 02:56:03;;;;;;;13.90;10.38;;;;;;;;;;5014293;28;20045;-74
2023/09/05 02:58:30;;;;;;;12.77;10.85;;;;;;;;;;4998194;28;20060;-74
2023/09/05 03:01:03;;;;;;;17.08;10.18;;;;;;;;;;4995376;28;20098;-74
2023/09/05 03:03:30;;;;;;;12.93;10.93;;;;;;;;;;5010184;28;20098;-74
2023/09/05 03:05:57;;;;;;;12.30;10.57;;;;;;;;;;5016515;28;20436;-74
2023/09/05 03:08:23;;;;;;;12.02;10.40;;;;;;;;;;5010192;28;20124;-74
2023/09/05 03:10:51;;;;;;;12.82;9.93;;;;;;;;;;5009753;28;20430;-74
2023/09/05 03:13:17;;;;;;;10.88;9.55;;;;;;;;;;5012065;28;20044;-73
2023/09/05 03:15:43;;;;;;;13.70;10.15;;;;;;;;;;4997379;28;20096;-73
2023/09/05 03:18:09;;;;;;;11.55;9.95;;;;;;;;;;5016835;28;20044;-74
2023/09/05 03:20:35;;;;;;;11.63;10.32;;;;;;;;;;5020375;28;20120;-74
2023/09/05 03:23:01;;;;;;;11.45;9.95;;;;;;;;;;5012887;28;20048;-74
2023/09/05 03:25:27;;;;;;;12.45;10.85;;;;;;;;;;5014014;28;20584;-74
2023/09/05 03:27:54;;;;;;;13.85;10.27;;;;;;;;;;5015813;28;20052;-74
2023/09/05 03:30:20;;;;;;;14.52;11.02;;;;;;;;;;5016059;28;20132;-74
2023/09/05 03:32:46;;;;;;;11.35;10.25;;;;;;;;;;5015664;28;20139;-74
2023/09/05 03:35:12;;;;;;;11.80;10.70;;;;;;;;;;4999213;28;20060;-74
2023/09/05 03:37:38;;;;;;;14.82;10.75;;;;;;;;;;5015403;28;20045;-74
2023/09/05 03:40:04;;;;;;;14.82;10.77;;;;;;;;;;5024452;28;20057;-74
2023/09/05 03:42:30;;;;;;;11.77;10.52;;;;;;;;;;5015543;28;20081;-73
2023/09/05 03:44:56;;;;;;;12.25;10.98;;;;;;;;;;5005322;28;20041;-74
2023/09/05 03:47:23;;;;;;;13.10;10.75;;;;;;;;;;5019181;28;20048;-74
2023/09/05 03:49:49;;;;;;;14.13;11.00;;;;;;;;;;5019011;28;20036;-73
2023/09/05 03:52:15;;;;;;;13.50;10.90;;;;;;;;;;5018575;28;20033;-73
2023/09/05 03:54:41;;;;;;;15.90;11.35;;;;;;;;;;5018194;28;20044;-74
2023/09/05 03:57:07;;;;;;;12.45;11.20;;;;;;;;;;5017918;28;20171;-74
2023/09/05 03:59:33;;;;;;;14.48;10.00;;;;;;;;;;4999140;28;20130;-74
2023/09/05 04:01:59;;;;;;;16.73;11.25;;;;;;;;;;4997749;28;20515;-75
2023/09/05 04:04:25;;;;;;;15.57;10.13;;;;;;;;;;5016161;28;20878;-74
2023/09/05 04:06:51;;;;;;;15.25;9.52;;;;;;;;;;5014103;28;20032;-74
2023/09/05 04:09:17;;;;;;;13.57;11.15;;;;;;;;;;5034570;28;20090;-73
2023/09/05 04:11:43;;;;;;;13.93;10.93;;;;;;;;;;5014837;28;20099;-73
2023/09/05 04:14:10;;;;;;;17.60;12.52;;;;;;;;;;5033368;28;20117;-74
2023/09/05 04:16:36;;;;;;;15.18;13.15;;;;;;;;;;5034722;28;20090;-74
2023/09/05 04:19:02;;;;;;;14.68;13.10;;;;;;;;;;5033816;28;20082;-75
2023/09/05 04:21:28;;;;;;;17.55;15.25;;;;;;;;;;5003829;28;20055;-76
2023/09/05 04:23:54;;;;;;;24.42;18.02;;;;;;;;;;5002721;28;20164;-75
2023/09/05 04:26:22;;;;;;;31.85;21.20;;;;;;;;;;5017936;28;20051;-75
2023/09/05 04:28:48;;;;;;;23.58;20.17;;;;;;;;;;5021454;28;20060;-75
2023/09/05 04:31:18;;;;;;;24.45;19.17;;;;;;;;;;5020850;28;20095;-74
2023/09/05 04:33:45;;;;;;;23.98;19.33;;;;;;;;;;5010764;28;20045;-75
2023/09/05 04:36:12;;;;;;;25.67;20.45;;;;;;;;;;5020165;28;20152;-75
2023/09/05 04:38:38;;;;;;;32.72;21.50;;;;;;;;;;5029917;28;20068;-75
2023/09/05 04:41:06;;;;;;;29.98;24.92;;;;;;;;;;5005323;28;20084;-75
2023/09/05 04:43:33;;;;;;;30.17;24.17;;;;;;;;;;5020209;28;20048;-75
2023/09/05 04:45:59;;;;;;;28.30;22.85;;;;;;;;;;5020918;28;20059;-75
2023/09/05 04:48:25;;;;;;;27.15;23.38;;;;;;;;;;5020677;28;20051;-75
2023/09/05 04:50:51;;;;;;;26.88;22.33;;;;;;;;;;5019652;28;20040;-75
2023/09/05 04:53:17;;;;;;;23.92;18.85;;;;;;;;;;5028270;28;20552;-76
2023/09/05 04:55:43;;;;;;;23.38;20.70;;;;;;;;;;5004782;28;20063;-76
2023/09/05 04:58:12;;;;;;;25.35;18.70;;;;;;;;;;5011413;28;20106;-75
2023/09/05 05:00:38;;;;;;;22.77;18.92;;;;;;;;;;5003697;28;20051;-75
2023/09/05 05:03:05;;;;;;;24.90;18.35;;;;;;;;;;5010935;28;20127;-75
2023/09/05 05:05:31;;;;;;;21.95;18.52;;;;;;;;;;5021140;28;20044;-75
2023/09/05 05:07:57;;;;;;;22.88;19.10;;;;;;;;;;5007471;28;20090;-75
2023/09/05 05:10:23;;;;;;;24.00;18.75;;;;;;;;;;5005341;28;20037;-75
2023/09/05 05:12:49;;;;;;;27.15;18.65;;;;;;;;;;5021757;28;20041;-75
2023/09/05 05:15:15;;;;;;;22.33;17.95;;;;;;;;;;5011692;28;20049;-75
2023/09/05 05:17:41;;;;;;;32.40;19.95;;;;;;;;;;5006121;28;20040;-76
2023/09/05 05:20:08;;;;;;;28.90;20.27;;;;;;;;;;5007692;28;20041;-75
2023/09/05 05:22:34;;;;;;;24.10;19.23;;;;;;;;;;5002751;28;20051;-75
2023/09/05 05:25:00;;;;;;;23.20;19.00;;;;;;;;;;5018694;28;20122;-75
2023/09/05 05:27:26;;;;;;;25.92;19.90;;;;;;;;;;5023486;28;20040;-75
2023/09/05 05:29:53;;;;;;;24.45;17.15;;;;;;;;;;5019902;28;20040;-76
2023/09/05 05:32:19;;;;;;;19.55;14.55;;;;;;;;;;5003669;28;20056;-76
2023/09/05 05:34:48;;;;;;;16.25;13.57;;;;;;;;;;5021309;28;20345;-75
2023/09/05 05:37:17;;;;;;;15.68;12.82;;;;;;;;;;5019719;28;20190;-75
2023/09/05 05:39:44;;;;;;;15.77;13.00;;;;;;;;;;5004236;28;20056;-75
2023/09/05 05:42:10;;;;;;;15.02;13.40;;;;;;;;;;5003151;28;20102;-75
2023/09/05 05:44:36;;;;;;;17.10;13.00;;;;;;;;;;5014655;28;20092;-75
2023/09/05 05:47:03;;;;;;;16.08;13.07;;;;;;;;;;4990035;28;20037;-75
2023/09/05 05:49:30;;;;;;;18.20;13.93;;;;;;;;;;5014008;28;20049;-75
2023/09/05 05:52:00;;;;;;;15.18;13.57;;;;;;;;;;5014919;28;20532;-75
2023/09/05 05:54:27;;;;;;;16.52;12.80;;;;;;;;;;5000130;28;20036;-75
2023/09/05 05:56:55;;;;;;;14.98;12.82;;;;;;;;;;5001618;28;20073;-75
2023/09/05 05:59:21;;;;;;;15.00;12.65;;;;;;;;;;5015675;28;20076;-76
2023/09/05 06:01:47;;;;;;;16.85;12.40;;;;;;;;;;5009954;28;20041;-76
2023/09/05 06:04:15;;;;;;;15.35;12.73;;;;;;;;;;5016633;28;20688;-76
2023/09/05 06:06:42;;;;;;;13.52;12.10;;;;;;;;;;5014605;28;20107;-76
2023/09/05 06:09:09;;;;;;;15.65;12.95;;;;;;;;;;4995775;28;20748;-75
2023/09/05 06:11:35;;;;;;;14.02;12.55;;;;;;;;;;4997607;28;20394;-76
2023/09/05 06:14:01;;;;;;;16.33;13.35;;;;;;;;;;5014425;28;20071;-76
2023/09/05 06:16:28;;;;;;;17.38;13.02;;;;;;;;;;5013376;28;20056;-76
2023/09/05 06:18:54;;;;;;;15.00;13.50;;;;;;;;;;5010730;28;20056;-76
2023/09/05 06:21:20;;;;;;;16.25;12.90;;;;;;;;;;5011890;28;20094;-75
2023/09/05 06:23:46;;;;;;;15.95;13.02;;;;;;;;;;5009664;28;20044;-76
2023/09/05 06:26:12;;;;;;;18.58;13.85;;;;;;;;;;5014055;28;20049;-76
2023/09/05 06:28:38;;;;;;;14.27;12.77;;;;;;;;;;4996155;28;20041;-76
2023/09/05 06:31:05;;;;;;;15.52;13.45;;;;;;;;;;5013639;28;20540;-76
2023/09/05 06:33:31;;;;;;;15.60;13.00;;;;;;;;;;5012615;28;20675;-76
2023/09/05 06:35:57;;;;;;;14.70;12.40;;;;;;;;;;5000915;28;20430;-77
2023/09/05 06:38:23;;;;;;;15.02;12.98;;;;;;;;;;5015399;28;20053;-77
2023/09/05 06:40:50;;;;;;;16.50;13.27;;;;;;;;;;4998807;28;20054;-76
2023/09/05 06:43:16;;;;;;;15.50;13.85;;;;;;;;;;4997019;28;20926;-77
2023/09/05 06:45:42;;;;;;;15.07;13.48;;;;;;;;;;5014364;28;20042;-77
2023/09/05 06:48:08;;;;;;;15.35;13.75;;;;;;;;;;5011552;28;20506;-75
2023/09/05 06:50:34;;;;;;;16.88;14.70;;;;;;;;;;4996540;28;20041;-76
2023/09/05 06:53:00;;;;;;;22.50;14.48;;;;;;;;;;5013591;28;20722;-76
2023/09/05 06:55:28;;;;;;;17.73;14.00;;;;;;;;;;4993298;28;20277;-77
2023/09/05 06:57:55;;;;;;;16.88;13.45;;;;;;;;;;5012927;28;20505;-76
2023/09/05 07:00:25;;;;;;;21.33;13.75;;;;;;;;;;5012719;28;20049;-76
2023/09/05 07:02:51;;;;;;;20.88;14.20;;;;;;;;;;5012194;28;20045;-76
2023/09/05 07:05:17;;;;;;;16.38;13.18;;;;;;;;;;5000225;28;20059;-77
2023/09/05 07:07:43;;;;;;;18.75;13.88;;;;;;;;;;5010721;28;20087;-76
2023/09/05 07:10:10;;;;;;;15.88;13.48;;;;;;;;;;4996406;28;20063;-76
2023/09/05 07:12:38;;;;;;;20.45;14.90;;;;;;;;;;4982481;28;20036;-76
2023/09/05 07:15:04;;;;;;;18.23;15.32;;;;;;;;;;4995488;28;20063;-76
2023/09/05 07:17:30;;;;;;;20.00;15.40;;;;;;;;;;4996611;28;20160;-76
2023/09/05 07:19:56;;;;;;;18.50;13.50;;;;;;;;;;5017690;28;20445;-76
2023/09/05 07:22:23;;;;;;;26.20;13.73;;;;;;;;;;4996420;28;20046;-77
2023/09/05 07:24:49;;;;;;;12.30;10.88;;;;;;;;;;5016284;28;20040;-76
2023/09/05 07:27:16;;;;;;;13.00;10.70;;;;;;;;;;5015501;28;20132;-76
2023/09/05 07:29:43;;;;;;;14.38;10.88;;;;;;;;;;5014645;28;20049;-75
2023/09/05 07:32:09;;;;;;;11.40;9.48;;;;;;;;;;5013789;28;20042;-75
2023/09/05 07:34:35;;;;;;;16.13;10.07;;;;;;;;;;5017497;28;20588;-76
2023/09/05 07:37:03;;;;;;;19.27;10.60;;;;;;;;;;5012955;28;20513;-76
2023/09/05 07:39:29;;;;;;;9.60;7.85;;;;;;;;;;5016107;28;20092;-75
2023/09/05 07:41:55;;;;;;;12.50;7.53;;;;;;;;;;5017276;28;20081;-75
2023/09/05 07:44:21;;;;;;;12.45;7.80;;;;;;;;;;5013615;28;20631;-76
2023/09/05 07:46:47;;;;;;;14.23;8.38;;;;;;;;;;5002425;28;20128;-76
2023/09/05 07:49:15;;;;;;;12.02;7.78;;;;;;;;;;4998396;28;20178;-75
2023/09/05 07:51:42;;;;;;;8.60;7.63;;;;;;;;;;5013546;28;20044;-75
2023/09/05 07:54:10;;;;;;;8.48;7.40;;;;;;;;;;5000493;28;20041;-75
2023/09/05 07:56:37;;;;;;;9.23;6.90;;;;;;;;;;5005726;28;20045;-75
2023/09/05 07:59:03;;;;;;;8.65;6.68;;;;;;;;;;5017326;28;20591;-75
2023/09/05 08:01:29;;;;;;;9.85;7.70;;;;;;;;;;5014621;28;20100;-75
2023/09/05 08:03:56;;;;;;;13.35;9.35;;;;;;;;;;5002057;28;20050;-75
2023/09/05 08:06:22;;;;;;;12.63;10.18;;;;;;;;;;5014400;28;20046;-75
2023/09/05 08:08:48;;;;;;;13.85;12.35;;;;;;;;;;5015119;28;20187;-75
2023/09/05 08:11:14;;;;;;;14.70;12.57;;;;;;;;;;5015810;28;20045;-76
2023/09/05 08:13:40;;;;;;;15.75;10.20;;;;;;;;;;5013988;28;20078;-75
2023/09/05 08:16:06;;;;;;;12.85;11.55;;;;;;;;;;5014311;28;20049;-75
2023/09/05 08:18:33;;;;;;;15.43;12.07;;;;;;;;;;5015538;28;20045;-75
2023/09/05 08:20:59;;;;;;;14.00;12.50;;;;;;;;;;5013456;28;20045;-75
2023/09/05 08:23:26;;;;;;;18.13;11.95;;;;;;;;;;5001804;28;21526;-75
2023/09/05 08:25:53;;;;;;;17.63;14.00;;;;;;;;;;5015511;28;20408;-75
2023/09/05 08:28:19;;;;;;;19.08;14.13;;;;;;;;;;5022028;28;20099;-76
2023/09/05 08:30:46;;;;;;;15.25;13.65;;;;;;;;;;5016869;28;20046;-76
2023/09/05 08:33:12;;;;;;;16.90;12.45;;;;;;;;;;5016611;28;20041;-75
2023/09/05 08:35:38;;;;;;;13.40;12.00;;;;;;;;;;5017821;28;20053;-75
2023/09/05 08:38:05;;;;;;;13.60;12.20;;;;;;;;;;5001084;28;20414;-75
2023/09/05 08:40:35;;;;;;;12.10;10.55;;;;;;;;;;5014870;28;20045;-75
2023/09/05 08:43:04;;;;;;;12.18;10.82;;;;;;;;;;5011605;28;20080;-75
2023/09/05 08:45:31;;;;;;;14.38;11.00;;;;;;;;;;5016237;28;20040;-76
2023/09/05 08:47:57;;;;;;;13.82;11.77;;;;;;;;;;5013143;28;20047;-76
2023/09/05 08:50:25;;;;;;;14.73;12.13;;;;;;;;;;5005407;28;20162;-76
2023/09/05 08:52:53;;;;;;;16.67;11.43;;;;;;;;;;5018440;28;21665;-76
2023/09/05 08:55:20;;;;;;;13.50;11.25;;;;;;;;;;5012682;28;20281;-76
2023/09/05 08:57:47;;;;;;;14.43;11.00;;;;;;;;;;5013561;28;20536;-76
2023/09/05 09:00:17;;;;;;;11.45;10.35;;;;;;;;;;5014454;28;20049;-76
2023/09/05 09:02:44;;;;;;;12.32;11.05;;;;;;;;;;5014725;28;20049;-76
2023/09/05 09:05:10;;;;;;;15.35;12.02;;;;;;;;;;5016079;28;20091;-75
2023/09/05 09:07:36;;;;;;;13.15;10.38;;;;;;;;;;5015943;28;20046;-75
2023/09/05 09:10:16;;;;;;;12.02;10.20;;;;;;;;;;5017791;28;20055;-76
2023/09/05 09:12:42;;;;;;;11.82;10.63;;;;;;;;;;5014171;28;20052;-76
2023/09/05 09:15:09;;;;;;;12.02;10.85;;;;;;;;;;5017392;28;20069;-76
2023/09/05 09:17:42;;;;;;;14.88;13.25;;;;;;;;;;5017387;28;20033;-75
2023/09/05 09:20:12;;;;;;;18.25;15.60;;;;;;;;;;5015818;28;20084;-77
2023/09/05 09:22:39;;;;;;;16.52;14.18;;;;;;;;;;5015085;28;20493;-76
2023/09/05 09:25:14;;;;;;;19.63;14.95;;;;;;;;;;5019272;28;20043;-76
2023/09/05 09:27:42;;;;;;;17.25;14.93;;;;;;;;;;5014690;28;20207;-76
2023/09/05 09:30:11;;;;;;;19.13;14.77;;;;;;;;;;5014447;28;20055;-76
2023/09/05 09:32:38;;;;;;;15.73;11.90;;;;;;;;;;5012776;28;20053;-75
2023/09/05 09:35:10;;;;;;;17.02;11.85;;;;;;;;;;5015280;28;20055;-76
2023/09/05 09:37:36;;;;;;;12.27;11.13;;;;;;;;;;4998013;28;20757;-76
2023/09/05 09:40:07;;;;;;;15.98;10.98;;;;;;;;;;5018482;28;20057;-76
2023/09/05 09:42:36;;;;;;;15.30;11.02;;;;;;;;;;5009015;28;20060;-77
2023/09/05 09:45:05;;;;;;;12.02;10.57;;;;;;;;;;5019515;28;20049;-76
2023/09/05 09:47:32;;;;;;;12.70;10.32;;;;;;;;;;5018256;28;20101;-76
2023/09/05 09:49:58;;;;;;;11.20;9.68;;;;;;;;;;5019268;28;20053;-77
2023/09/05 09:52:25;;;;;;;12.15;10.38;;;;;;;;;;5019774;28;20051;-76
2023/09/05 09:54:53;;;;;;;14.13;11.52;;;;;;;;;;5019447;28;20139;-77
2023/09/05 09:57:33;;;;;;;13.85;9.05;;;;;;;;;;5019410;28;20130;-77
2023/09/05 10:00:15;;;;;;;10.25;9.32;;;;;;;;;;5021503;28;20067;-77
2023/09/05 10:02:43;;;;;;;10.02;8.00;;;;;;;;;;5019771;28;20060;-77
2023/09/05 10:05:10;;;;;;;13.32;8.52;;;;;;;;;;5017949;28;20382;-77
2023/09/05 10:07:36;;;;;;;9.65;7.97;;;;;;;;;;5018311;28;20757;-77
2023/09/05 10:10:04;;;;;;;6.30;5.70;;;;;;;;;;5013247;28;20579;-76
2023/09/05 10:12:31;;;;;;;8.15;5.63;;;;;;;;;;4995954;28;20700;-77
2023/09/05 10:14:59;;;;;;;5.60;5.10;;;;;;;;;;4998070;28;20045;-77
2023/09/05 10:17:27;;;;;;;8.50;4.40;;;;;;;;;;4999061;28;20045;-76
2023/09/05 10:19:54;;;;;;;14.07;4.35;;;;;;;;;;5035746;28;20306;-77
2023/09/05 10:22:21;;;;;;;5.43;4.43;;;;;;;;;;5020151;28;20103;-76
2023/09/05 10:24:48;;;;;;;7.03;4.82;;;;;;;;;;5022456;28;20047;-76
2023/09/05 10:27:15;;;;;;;8.27;4.10;;;;;;;;;;5037708;28;20580;-76
2023/09/05 10:29:42;;;;;;;6.10;3.28;;;;;;;;;;5037776;28;20045;-76
2023/09/05 10:32:09;;;;;;;4.93;3.53;;;;;;;;;;5002162;28;20044;-77
2023/09/05 10:34:48;;;;;;;6.50;3.20;;;;;;;;;;5015839;28;20049;-76
2023/09/05 10:37:28;;;;;;;10.57;3.60;;;;;;;;;;5018058;28;20159;-77
2023/09/05 10:39:55;;;;;;;5.88;4.40;;;;;;;;;;5034673;28;20045;-76
2023/09/05 10:42:29;;;;;;;6.80;4.40;;;;;;;;;;5031562;28;21261;-77
2023/09/05 10:44:55;;;;;;;4.53;3.70;;;;;;;;;;5018219;28;20465;-76
2023/09/05 10:47:29;;;;;;;6.18;4.13;;;;;;;;;;5017102;28;20040;-75
2023/09/05 10:50:08;;;;;;;5.88;3.08;;;;;;;;;;5035780;28;20052;-77
2023/09/05 10:52:34;;;;;;;4.88;4.38;;;;;;;;;;5020067;28;20047;-77
2023/09/05 10:55:20;;;;;;;4.15;3.33;;;;;;;;;;5031758;28;20048;-78
2023/09/05 10:57:50;;;;;;;3.83;3.45;;;;;;;;;;5023994;28;20051;-78
2023/09/05 11:00:28;;;;;;;4.05;3.28;;;;;;;;;;4992016;28;20037;-78
2023/09/05 11:02:56;;;;;;;10.35;3.80;;;;;;;;;;5023178;28;20083;-78
2023/09/05 11:05:25;;;;;;;7.32;3.70;;;;;;;;;;5024284;28;20049;-78
2023/09/05 11:07:54;;;;;;;5.85;3.53;;;;;;;;;;5007795;28;20040;-78
2023/09/05 11:10:28;;;;;;;4.05;3.17;;;;;;;;;;5006761;28;20045;-78
2023/09/05 11:12:54;;;;;;;2.95;2.60;;;;;;;;;;5006698;28;20075;-78
2023/09/05 11:15:30;;;;;;;5.88;2.70;;;;;;;;;;5023842;28;20090;-78
2023/09/05 11:18:08;;;;;;;3.63;3.10;;;;;;;;;;5007069;28;20047;-78
2023/09/05 11:20:39;;;;;;;5.03;2.58;;;;;;;;;;5029006;28;20132;-78
2023/09/05 11:23:15;;;;;;;3.60;2.30;;;;;;;;;;5023716;28;20634;-78
2023/09/05 11:25:46;;;;;;;2.70;2.20;;;;;;;;;;5022999;28;20087;-78
2023/09/05 11:28:12;;;;;;;2.40;1.65;;;;;;;;;;5020713;28;20045;-79
2023/09/05 11:30:40;;;;;;;3.22;1.80;;;;;;;;;;5006503;28;20063;-78
2023/09/05 11:33:07;;;;;;;5.40;1.80;;;;;;;;;;5023472;28;20048;-79
2023/09/05 11:35:35;;;;;;;2.72;2.13;;;;;;;;;;5040146;28;20049;-78
2023/09/05 11:38:04;;;;;;;2.83;1.80;;;;;;;;;;5008069;28;20056;-77
2023/09/05 11:40:30;;;;;;;2.53;1.90;;;;;;;;;;5021852;28;20049;-76
2023/09/05 11:43:07;;;;;;;1.90;1.70;;;;;;;;;;5021305;28;20083;-76
2023/09/05 11:45:42;;;;;;;2.40;1.70;;;;;;;;;;5040344;28;20048;-76
2023/09/05 11:48:14;;;;;;;4.25;1.52;;;;;;;;;;5038320;28;20044;-76
2023/09/05 11:50:40;;;;;;;2.92;1.73;;;;;;;;;;5041010;28;20036;-77
2023/09/05 11:53:10;;;;;;;1.70;1.60;;;;;;;;;;5021847;28;20052;-76
2023/09/05 11:55:36;;;;;;;2.13;1.70;;;;;;;;;;5041397;28;20463;-76
2023/09/05 11:58:05;;;;;;;3.28;1.58;;;;;;;;;;5021852;28;20041;-76
2023/09/05 12:00:35;;;;;;;3.78;2.00;;;;;;;;;;5040251;28;20176;-76
2023/09/05 12:03:01;;;;;;;4.82;1.90;;;;;;;;;;5039379;28;20402;-76
2023/09/05 12:05:28;;;;;;;6.32;1.85;;;;;;;;;;5039829;28;20040;-76
2023/09/05 12:07:55;;;;;;;4.28;1.95;;;;;;;;;;5040142;28;20048;-76
2023/09/05 12:10:22;;;;;;;4.85;2.05;;;;;;;;;;5038369;28;20112;-76
2023/09/05 12:12:53;;;;;;;3.65;1.80;;;;;;;;;;5022164;28;20409;-76
2023/09/05 12:15:27;;;;;;;3.25;1.80;;;;;;;;;;5039180;28;20492;-76
2023/09/05 12:17:54;;;;;;;3.38;1.80;;;;;;;;;;5039000;28;20048;-76
2023/09/05 12:20:20;;;;;;;2.05;1.83;;;;;;;;;;5041101;28;20793;-76
2023/09/05 12:22:47;;;;;;;2.97;1.95;;;;;;;;;;5038500;28;20404;-76
2023/09/05 12:25:14;;;;;;;3.15;2.20;;;;;;;;;;5036510;28;20079;-78
2023/09/05 12:27:42;;;;;;;4.20;2.60;;;;;;;;;;5016674;28;20040;-79
2023/09/05 12:30:13;;;;;;;5.70;3.10;;;;;;;;;;5018111;28;20059;-79
2023/09/05 12:32:41;;;;;;;8.27;2.88;;;;;;;;;;5015315;28;20242;-79
2023/09/05 12:35:07;;;;;;;6.10;3.55;;;;;;;;;;5037883;28;22489;-79
2023/09/05 12:37:33;;;;;;;4.00;3.33;;;;;;;;;;5003739;28;20043;-79
2023/09/05 12:40:00;;;;;;;5.65;3.40;;;;;;;;;;5042982;28;20044;-76
2023/09/05 12:42:28;;;;;;;7.82;2.90;;;;;;;;;;5020445;28;20049;-79
2023/09/05 12:44:54;;;;;;;5.35;3.08;;;;;;;;;;5037788;28;20041;-79
2023/09/05 12:47:20;;;;;;;11.45;3.00;;;;;;;;;;5015418;28;20048;-78
2023/09/05 12:49:47;;;;;;;4.07;2.35;;;;;;;;;;5032175;28;21631;-80
2023/09/05 12:52:13;;;;;;;3.92;2.60;;;;;;;;;;5039395;28;20128;-78
2023/09/05 12:54:40;;;;;;;3.45;2.70;;;;;;;;;;5036615;28;20710;-79
2023/09/05 12:57:06;;;;;;;5.65;3.38;;;;;;;;;;5017386;28;20103;-76
2023/09/05 12:59:33;;;;;;;4.53;3.10;;;;;;;;;;5036385;28;20143;-76
2023/09/05 13:01:59;;;;;;;4.60;3.60;;;;;;;;;;5036297;28;20388;-76
2023/09/05 13:04:25;;;;;;;4.97;3.50;;;;;;;;;;4999643;28;21491;-77
2023/09/05 13:06:51;;;;;;;6.85;4.13;;;;;;;;;;5033581;28;20068;-80
2023/09/05 13:09:18;;;;;;;5.40;4.07;;;;;;;;;;5019683;28;20079;-76
2023/09/05 13:11:44;;;;;;;4.68;3.90;;;;;;;;;;5018094;28;20040;-76
2023/09/05 13:14:10;;;;;;;5.47;4.95;;;;;;;;;;5005571;28;20808;-77
2023/09/05 13:16:38;;;;;;;4.93;4.32;;;;;;;;;;5017456;28;20041;-76
2023/09/05 13:19:04;;;;;;;7.68;4.78;;;;;;;;;;5039754;28;20075;-76
2023/09/05 13:21:30;;;;;;;9.10;4.70;;;;;;;;;;5018897;28;20041;-76
2023/09/05 13:23:58;;;;;;;8.85;4.28;;;;;;;;;;5038229;28;20041;-75
2023/09/05 13:26:24;;;;;;;6.18;4.28;;;;;;;;;;5035841;28;20531;-76
2023/09/05 13:28:51;;;;;;;9.95;4.07;;;;;;;;;;5037144;28;20064;-75
2023/09/05 13:31:17;;;;;;;4.85;3.63;;;;;;;;;;5032805;28;20041;-76
2023/09/05 13:33:43;;;;;;;6.40;3.85;;;;;;;;;;5024911;28;20078;-76
2023/09/05 13:36:09;;;;;;;7.60;3.90;;;;;;;;;;5037340;28;20184;-76
2023/09/05 13:38:35;;;;;;;5.13;2.88;;;;;;;;;;5009146;28;20048;-76
2023/09/05 13:41:01;;;;;;;4.38;2.95;;;;;;;;;;5037443;28;20052;-76
2023/09/05 13:43:27;;;;;;;4.93;2.85;;;;;;;;;;5019134;28;20658;-76
2023/09/05 13:45:53;;;;;;;6.07;3.15;;;;;;;;;;5015972;28;20114;-75
2023/09/05 13:48:20;;;;;;;4.40;2.88;;;;;;;;;;5034001;28;20041;-74
2023/09/05 13:50:46;;;;;;;3.22;2.83;;;;;;;;;;5039703;28;20048;-74
2023/09/05 13:53:15;;;;;;;4.35;2.80;;;;;;;;;;5036501;28;20045;-73
2023/09/05 13:55:42;;;;;;;6.93;2.78;;;;;;;;;;5037812;28;20542;-73
2023/09/05 13:58:09;;;;;;;5.20;2.80;;;;;;;;;;5016871;28;20393;-74
2023/09/05 14:00:35;;;;;;;7.55;2.70;;;;;;;;;;5035322;28;20056;-74
2023/09/05 14:03:01;;;;;;;2.78;2.40;;;;;;;;;;5003210;28;20110;-74
2023/09/05 14:05:27;;;;;;;2.65;1.90;;;;;;;;;;5035234;28;20048;-73
2023/09/05 14:07:53;;;;;;;5.80;2.30;;;;;;;;;;5017977;28;20044;-73
2023/09/05 14:10:19;;;;;;;5.93;2.38;;;;;;;;;;5019929;28;20078;-74
2023/09/05 14:12:45;;;;;;;3.17;2.00;;;;;;;;;;5036773;28;20651;-74
2023/09/05 14:15:11;;;;;;;7.63;2.13;;;;;;;;;;5019523;28;20044;-75
2023/09/05 14:17:38;;;;;;;2.50;2.17;;;;;;;;;;5000224;28;20271;-74
2023/09/05 14:20:04;;;;;;;3.00;2.10;;;;;;;;;;5034874;28;20102;-74
2023/09/05 14:22:30;;;;;;;3.05;2.13;;;;;;;;;;5036240;28;20046;-74
2023/09/05 14:24:56;;;;;;;3.42;1.80;;;;;;;;;;5036581;28;20540;-75
2023/09/05 14:27:22;;;;;;;3.20;2.30;;;;;;;;;;5016298;28;20040;-74
2023/09/05 14:29:49;;;;;;;4.30;2.03;;;;;;;;;;5038231;28;20197;-74